sensor_id;sensor_type;location;lat;lon;timestamp;P1;durP1;ratioP1;P2;durP2;ratioP2
79687;SDS011;69155;49.464;2.108;2023-05-08T00:02:09;19.93;;;11.63;;
79687;SDS011;69155;49.464;2.108;2023-05-08T00:04:35;17.73;;;11.73;;
79687;SDS011;69155;49.464;2.108;2023-05-08T00:07:00;20.02;;;11.40;;
79687;SDS011;69155;49.464;2.108;2023-05-08T00:09:25;22.80;;;12.30;;
79687;SDS011;69155;49.464;2.108;2023-05-08T00:11:50;26.10;;;13.60;;
79687;SDS011;69155;49.464;2.108;2023-05-08T00:14:16;25.20;;;13.33;;
79687;SDS011;69155;49.464;2.108;2023-05-08T00:16:41;24.07;;;14.23;;
79687;SDS011;69155;49.464;2.108;2023-05-08T00:19:06;27.23;;;16.33;;
79687;SDS011;69155;49.464;2.108;2023-05-08T00:21:32;31.48;;;16.85;;
79687;SDS011;69155;49.464;2.108;2023-05-08T00:23:57;32.77;;;17.47;;
79687;SDS011;69155;49.464;2.108;2023-05-08T00:26:22;27.17;;;15.27;;
79687;SDS011;69155;49.464;2.108;2023-05-08T00:28:48;33.47;;;16.87;;
79687;SDS011;69155;49.464;2.108;2023-05-08T00:31:13;29.80;;;16.00;;
79687;SDS011;69155;49.464;2.108;2023-05-08T00:33:38;29.87;;;16.60;;
79687;SDS011;69155;49.464;2.108;2023-05-08T00:36:04;33.33;;;15.98;;
79687;SDS011;69155;49.464;2.108;2023-05-08T00:38:30;33.63;;;17.30;;
79687;SDS011;69155;49.464;2.108;2023-05-08T00:40:55;34.08;;;16.67;;
79687;SDS011;69155;49.464;2.108;2023-05-08T00:43:20;41.00;;;17.57;;
79687;SDS011;69155;49.464;2.108;2023-05-08T00:45:49;40.20;;;18.58;;
79687;SDS011;69155;49.464;2.108;2023-05-08T00:48:15;39.00;;;19.20;;
79687;SDS011;69155;49.464;2.108;2023-05-08T00:50:40;35.93;;;17.20;;
79687;SDS011;69155;49.464;2.108;2023-05-08T00:53:05;33.80;;;16.60;;
79687;SDS011;69155;49.464;2.108;2023-05-08T00:55:31;27.70;;;16.53;;
79687;SDS011;69155;49.464;2.108;2023-05-08T00:57:56;33.70;;;15.07;;
79687;SDS011;69155;49.464;2.108;2023-05-08T01:00:22;28.15;;;14.20;;
79687;SDS011;69155;49.464;2.108;2023-05-08T01:02:47;28.23;;;13.98;;
79687;SDS011;69155;49.464;2.108;2023-05-08T01:05:12;29.97;;;14.37;;
79687;SDS011;69155;49.464;2.108;2023-05-08T01:07:38;32.90;;;14.37;;
79687;SDS011;69155;49.464;2.108;2023-05-08T01:10:03;31.23;;;14.43;;
79687;SDS011;69155;49.464;2.108;2023-05-08T01:25:28;26.23;;;13.23;;
79687;SDS011;69155;49.464;2.108;2023-05-08T01:35:48;21.30;;;11.88;;
79687;SDS011;69155;49.464;2.108;2023-05-08T01:38:18;25.65;;;11.45;;
79687;SDS011;69155;49.464;2.108;2023-05-08T01:40:52;30.05;;;13.18;;
79687;SDS011;69155;49.464;2.108;2023-05-08T01:45:47;24.52;;;11.57;;
79687;SDS011;69155;49.464;2.108;2023-05-08T01:48:18;32.33;;;12.45;;
79687;SDS011;69155;49.464;2.108;2023-05-08T01:50:47;23.08;;;11.68;;
79687;SDS011;69155;49.464;2.108;2023-05-08T01:53:20;28.40;;;12.48;;
79687;SDS011;69155;49.464;2.108;2023-05-08T01:55:47;28.48;;;12.38;;
79687;SDS011;69155;49.464;2.108;2023-05-08T01:58:13;29.27;;;12.85;;
79687;SDS011;69155;49.464;2.108;2023-05-08T02:00:39;27.40;;;12.30;;
79687;SDS011;69155;49.464;2.108;2023-05-08T02:03:05;30.02;;;13.18;;
79687;SDS011;69155;49.464;2.108;2023-05-08T02:05:31;22.13;;;10.68;;
79687;SDS011;69155;49.464;2.108;2023-05-08T02:07:58;27.30;;;10.73;;
79687;SDS011;69155;49.464;2.108;2023-05-08T02:10:24;20.13;;;9.13;;
79687;SDS011;69155;49.464;2.108;2023-05-08T02:12:50;21.70;;;10.35;;
79687;SDS011;69155;49.464;2.108;2023-05-08T02:15:16;21.25;;;9.43;;
79687;SDS011;69155;49.464;2.108;2023-05-08T02:17:42;17.48;;;8.15;;
79687;SDS011;69155;49.464;2.108;2023-05-08T02:20:08;17.98;;;9.30;;
79687;SDS011;69155;49.464;2.108;2023-05-08T02:22:38;21.55;;;9.13;;
79687;SDS011;69155;49.464;2.108;2023-05-08T02:25:05;20.85;;;9.05;;
79687;SDS011;69155;49.464;2.108;2023-05-08T02:27:30;16.63;;;8.32;;
79687;SDS011;69155;49.464;2.108;2023-05-08T02:29:55;22.03;;;10.13;;
79687;SDS011;69155;49.464;2.108;2023-05-08T02:32:21;17.50;;;8.87;;
79687;SDS011;69155;49.464;2.108;2023-05-08T02:34:48;17.40;;;8.55;;
79687;SDS011;69155;49.464;2.108;2023-05-08T02:37:13;22.10;;;9.48;;
79687;SDS011;69155;49.464;2.108;2023-05-08T02:39:40;16.90;;;9.20;;
79687;SDS011;69155;49.464;2.108;2023-05-08T02:42:05;22.75;;;9.82;;
79687;SDS011;69155;49.464;2.108;2023-05-08T02:44:31;17.67;;;8.97;;
79687;SDS011;69155;49.464;2.108;2023-05-08T02:47:00;19.65;;;8.57;;
79687;SDS011;69155;49.464;2.108;2023-05-08T02:49:31;20.33;;;8.95;;
79687;SDS011;69155;49.464;2.108;2023-05-08T02:52:12;20.60;;;8.73;;
79687;SDS011;69155;49.464;2.108;2023-05-08T02:54:57;14.48;;;6.88;;
79687;SDS011;69155;49.464;2.108;2023-05-08T02:59:56;22.15;;;8.00;;
79687;SDS011;69155;49.464;2.108;2023-05-08T03:02:34;17.70;;;7.60;;
79687;SDS011;69155;49.464;2.108;2023-05-08T03:07:24;13.32;;;6.78;;
79687;SDS011;69155;49.464;2.108;2023-05-08T03:09:57;14.05;;;7.60;;
79687;SDS011;69155;49.464;2.108;2023-05-08T03:12:23;17.20;;;8.25;;
79687;SDS011;69155;49.464;2.108;2023-05-08T03:15:05;16.38;;;7.68;;
79687;SDS011;69155;49.464;2.108;2023-05-08T03:17:32;16.08;;;8.00;;
79687;SDS011;69155;49.464;2.108;2023-05-08T03:19:58;17.05;;;8.23;;
79687;SDS011;69155;49.464;2.108;2023-05-08T03:22:25;15.98;;;8.07;;
79687;SDS011;69155;49.464;2.108;2023-05-08T03:24:51;17.15;;;7.32;;
79687;SDS011;69155;49.464;2.108;2023-05-08T03:27:20;18.17;;;7.53;;
79687;SDS011;69155;49.464;2.108;2023-05-08T03:29:46;16.73;;;9.00;;
79687;SDS011;69155;49.464;2.108;2023-05-08T03:32:12;16.50;;;8.00;;
79687;SDS011;69155;49.464;2.108;2023-05-08T03:34:37;18.63;;;7.63;;
79687;SDS011;69155;49.464;2.108;2023-05-08T03:37:03;18.02;;;8.57;;
79687;SDS011;69155;49.464;2.108;2023-05-08T03:39:29;19.02;;;9.05;;
79687;SDS011;69155;49.464;2.108;2023-05-08T03:41:54;16.30;;;8.50;;
79687;SDS011;69155;49.464;2.108;2023-05-08T03:44:20;20.58;;;8.50;;
79687;SDS011;69155;49.464;2.108;2023-05-08T03:46:46;20.77;;;8.05;;
79687;SDS011;69155;49.464;2.108;2023-05-08T03:49:11;24.77;;;9.13;;
79687;SDS011;69155;49.464;2.108;2023-05-08T03:51:38;20.73;;;7.93;;
79687;SDS011;69155;49.464;2.108;2023-05-08T03:54:07;19.63;;;9.07;;
79687;SDS011;69155;49.464;2.108;2023-05-08T03:56:32;18.85;;;8.13;;
79687;SDS011;69155;49.464;2.108;2023-05-08T03:59:13;21.57;;;8.47;;
79687;SDS011;69155;49.464;2.108;2023-05-08T04:04:19;22.23;;;9.57;;
79687;SDS011;69155;49.464;2.108;2023-05-08T04:07:05;16.67;;;7.53;;
79687;SDS011;69155;49.464;2.108;2023-05-08T04:09:42;20.10;;;9.02;;
79687;SDS011;69155;49.464;2.108;2023-05-08T04:12:22;21.10;;;8.82;;
79687;SDS011;69155;49.464;2.108;2023-05-08T04:14:54;18.27;;;8.73;;
79687;SDS011;69155;49.464;2.108;2023-05-08T04:17:27;15.90;;;8.73;;
79687;SDS011;69155;49.464;2.108;2023-05-08T04:19:57;26.83;;;9.25;;
79687;SDS011;69155;49.464;2.108;2023-05-08T04:22:24;18.60;;;9.18;;
79687;SDS011;69155;49.464;2.108;2023-05-08T04:24:51;20.98;;;10.30;;
79687;SDS011;69155;49.464;2.108;2023-05-08T04:27:17;22.55;;;9.43;;
79687;SDS011;69155;49.464;2.108;2023-05-08T04:29:43;21.05;;;9.52;;
79687;SDS011;69155;49.464;2.108;2023-05-08T04:32:08;22.27;;;9.93;;
79687;SDS011;69155;49.464;2.108;2023-05-08T04:34:34;22.10;;;11.00;;
79687;SDS011;69155;49.464;2.108;2023-05-08T04:37:00;23.35;;;10.85;;
79687;SDS011;69155;49.464;2.108;2023-05-08T04:39:25;29.20;;;10.50;;
79687;SDS011;69155;49.464;2.108;2023-05-08T04:41:50;25.77;;;9.40;;
79687;SDS011;69155;49.464;2.108;2023-05-08T04:44:16;22.63;;;10.50;;
79687;SDS011;69155;49.464;2.108;2023-05-08T04:46:41;27.50;;;9.80;;
79687;SDS011;69155;49.464;2.108;2023-05-08T04:49:07;24.07;;;10.20;;
79687;SDS011;69155;49.464;2.108;2023-05-08T04:51:33;24.15;;;9.50;;
79687;SDS011;69155;49.464;2.108;2023-05-08T04:53:58;22.43;;;9.90;;
79687;SDS011;69155;49.464;2.108;2023-05-08T04:56:24;25.40;;;10.13;;
79687;SDS011;69155;49.464;2.108;2023-05-08T04:58:50;23.55;;;10.48;;
79687;SDS011;69155;49.464;2.108;2023-05-08T05:01:16;24.10;;;11.17;;
79687;SDS011;69155;49.464;2.108;2023-05-08T05:03:41;27.83;;;10.90;;
79687;SDS011;69155;49.464;2.108;2023-05-08T05:06:06;25.93;;;11.20;;
79687;SDS011;69155;49.464;2.108;2023-05-08T05:08:31;25.60;;;10.87;;
79687;SDS011;69155;49.464;2.108;2023-05-08T05:10:56;26.50;;;10.60;;
79687;SDS011;69155;49.464;2.108;2023-05-08T05:13:21;28.53;;;11.63;;
79687;SDS011;69155;49.464;2.108;2023-05-08T05:15:47;29.27;;;10.10;;
79687;SDS011;69155;49.464;2.108;2023-05-08T05:18:15;26.23;;;11.27;;
79687;SDS011;69155;49.464;2.108;2023-05-08T05:20:40;24.35;;;10.48;;
79687;SDS011;69155;49.464;2.108;2023-05-08T05:23:05;27.47;;;12.17;;
79687;SDS011;69155;49.464;2.108;2023-05-08T05:25:31;30.13;;;11.77;;
79687;SDS011;69155;49.464;2.108;2023-05-08T05:27:56;33.63;;;11.67;;
79687;SDS011;69155;49.464;2.108;2023-05-08T05:30:21;34.97;;;13.03;;
79687;SDS011;69155;49.464;2.108;2023-05-08T05:32:49;28.90;;;12.20;;
79687;SDS011;69155;49.464;2.108;2023-05-08T05:35:14;32.53;;;12.48;;
79687;SDS011;69155;49.464;2.108;2023-05-08T05:37:39;27.30;;;11.87;;
79687;SDS011;69155;49.464;2.108;2023-05-08T05:40:05;28.10;;;10.60;;
79687;SDS011;69155;49.464;2.108;2023-05-08T05:42:30;18.75;;;9.52;;
79687;SDS011;69155;49.464;2.108;2023-05-08T05:44:55;22.50;;;9.30;;
79687;SDS011;69155;49.464;2.108;2023-05-08T05:47:21;18.20;;;9.20;;
79687;SDS011;69155;49.464;2.108;2023-05-08T05:49:46;17.85;;;7.68;;
79687;SDS011;69155;49.464;2.108;2023-05-08T05:52:12;23.30;;;9.60;;
79687;SDS011;69155;49.464;2.108;2023-05-08T05:54:37;19.75;;;8.35;;
79687;SDS011;69155;49.464;2.108;2023-05-08T05:57:03;15.13;;;7.13;;
79687;SDS011;69155;49.464;2.108;2023-05-08T05:59:28;21.55;;;8.02;;
79687;SDS011;69155;49.464;2.108;2023-05-08T06:01:53;17.57;;;8.17;;
79687;SDS011;69155;49.464;2.108;2023-05-08T06:04:18;21.40;;;8.13;;
79687;SDS011;69155;49.464;2.108;2023-05-08T06:06:44;20.05;;;8.23;;
79687;SDS011;69155;49.464;2.108;2023-05-08T06:09:09;19.83;;;7.93;;
79687;SDS011;69155;49.464;2.108;2023-05-08T06:11:34;21.80;;;8.33;;
79687;SDS011;69155;49.464;2.108;2023-05-08T06:13:59;20.43;;;8.40;;
79687;SDS011;69155;49.464;2.108;2023-05-08T06:22:25;20.35;;;7.88;;
79687;SDS011;69155;49.464;2.108;2023-05-08T06:24:51;19.30;;;7.70;;
79687;SDS011;69155;49.464;2.108;2023-05-08T06:27:32;16.58;;;7.45;;
79687;SDS011;69155;49.464;2.108;2023-05-08T06:30:15;22.92;;;7.80;;
79687;SDS011;69155;49.464;2.108;2023-05-08T06:32:40;17.80;;;7.93;;
79687;SDS011;69155;49.464;2.108;2023-05-08T06:35:06;20.00;;;8.57;;
79687;SDS011;69155;49.464;2.108;2023-05-08T06:37:31;17.63;;;7.82;;
79687;SDS011;69155;49.464;2.108;2023-05-08T06:39:57;32.37;;;9.13;;
79687;SDS011;69155;49.464;2.108;2023-05-08T06:42:22;23.30;;;8.83;;
79687;SDS011;69155;49.464;2.108;2023-05-08T06:44:47;21.00;;;8.20;;
79687;SDS011;69155;49.464;2.108;2023-05-08T06:47:14;17.77;;;7.72;;
79687;SDS011;69155;49.464;2.108;2023-05-08T06:49:39;17.53;;;7.87;;
79687;SDS011;69155;49.464;2.108;2023-05-08T06:52:05;17.43;;;6.70;;
79687;SDS011;69155;49.464;2.108;2023-05-08T06:54:30;17.13;;;6.60;;
79687;SDS011;69155;49.464;2.108;2023-05-08T06:56:55;16.37;;;6.17;;
79687;SDS011;69155;49.464;2.108;2023-05-08T06:59:20;17.43;;;7.07;;
79687;SDS011;69155;49.464;2.108;2023-05-08T07:01:47;19.85;;;8.23;;
79687;SDS011;69155;49.464;2.108;2023-05-08T07:04:12;22.17;;;6.77;;
79687;SDS011;69155;49.464;2.108;2023-05-08T07:06:40;15.68;;;5.68;;
79687;SDS011;69155;49.464;2.108;2023-05-08T07:09:08;14.50;;;6.13;;
79687;SDS011;69155;49.464;2.108;2023-05-08T07:11:34;13.32;;;5.97;;
79687;SDS011;69155;49.464;2.108;2023-05-08T07:14:02;9.60;;;5.50;;
79687;SDS011;69155;49.464;2.108;2023-05-08T07:16:28;14.52;;;6.00;;
79687;SDS011;69155;49.464;2.108;2023-05-08T07:18:56;11.97;;;6.00;;
79687;SDS011;69155;49.464;2.108;2023-05-08T07:21:21;13.88;;;6.47;;
79687;SDS011;69155;49.464;2.108;2023-05-08T07:23:46;14.97;;;6.67;;
79687;SDS011;69155;49.464;2.108;2023-05-08T07:26:14;14.43;;;6.25;;
79687;SDS011;69155;49.464;2.108;2023-05-08T07:28:39;9.10;;;5.27;;
79687;SDS011;69155;49.464;2.108;2023-05-08T07:31:07;15.07;;;6.47;;
79687;SDS011;69155;49.464;2.108;2023-05-08T07:33:32;12.35;;;5.88;;
79687;SDS011;69155;49.464;2.108;2023-05-08T07:35:58;12.40;;;5.13;;
79687;SDS011;69155;49.464;2.108;2023-05-08T07:38:27;15.98;;;6.43;;
79687;SDS011;69155;49.464;2.108;2023-05-08T07:40:52;12.10;;;5.72;;
79687;SDS011;69155;49.464;2.108;2023-05-08T07:43:21;15.60;;;6.53;;
79687;SDS011;69155;49.464;2.108;2023-05-08T07:45:46;20.52;;;6.45;;
79687;SDS011;69155;49.464;2.108;2023-05-08T07:48:11;13.00;;;7.00;;
79687;SDS011;69155;49.464;2.108;2023-05-08T07:50:37;15.03;;;6.43;;
79687;SDS011;69155;49.464;2.108;2023-05-08T07:53:02;13.50;;;6.33;;
79687;SDS011;69155;49.464;2.108;2023-05-08T07:55:27;16.02;;;6.55;;
79687;SDS011;69155;49.464;2.108;2023-05-08T07:57:52;13.00;;;6.27;;
79687;SDS011;69155;49.464;2.108;2023-05-08T08:00:18;15.87;;;6.40;;
79687;SDS011;69155;49.464;2.108;2023-05-08T08:02:43;13.70;;;5.17;;
79687;SDS011;69155;49.464;2.108;2023-05-08T08:05:08;11.52;;;5.55;;
79687;SDS011;69155;49.464;2.108;2023-05-08T08:07:34;15.52;;;6.13;;
79687;SDS011;69155;49.464;2.108;2023-05-08T08:10:00;16.20;;;5.63;;
79687;SDS011;69155;49.464;2.108;2023-05-08T08:12:25;12.98;;;4.53;;
79687;SDS011;69155;49.464;2.108;2023-05-08T08:14:51;15.40;;;5.03;;
79687;SDS011;69155;49.464;2.108;2023-05-08T08:17:16;12.43;;;6.13;;
79687;SDS011;69155;49.464;2.108;2023-05-08T08:19:41;12.17;;;5.67;;
79687;SDS011;69155;49.464;2.108;2023-05-08T08:22:06;13.97;;;6.47;;
79687;SDS011;69155;49.464;2.108;2023-05-08T08:24:34;14.53;;;6.73;;
79687;SDS011;69155;49.464;2.108;2023-05-08T08:26:59;14.20;;;6.88;;
79687;SDS011;69155;49.464;2.108;2023-05-08T08:29:25;18.23;;;6.77;;
79687;SDS011;69155;49.464;2.108;2023-05-08T08:31:50;19.20;;;7.87;;
79687;SDS011;69155;49.464;2.108;2023-05-08T08:34:15;18.77;;;8.70;;
79687;SDS011;69155;49.464;2.108;2023-05-08T08:36:40;16.80;;;7.97;;
79687;SDS011;69155;49.464;2.108;2023-05-08T08:39:06;14.10;;;7.83;;
79687;SDS011;69155;49.464;2.108;2023-05-08T08:41:31;15.93;;;9.00;;
79687;SDS011;69155;49.464;2.108;2023-05-08T08:43:57;18.73;;;9.35;;
79687;SDS011;69155;49.464;2.108;2023-05-08T08:46:25;18.07;;;9.10;;
79687;SDS011;69155;49.464;2.108;2023-05-08T08:48:52;23.48;;;10.40;;
79687;SDS011;69155;49.464;2.108;2023-05-08T08:51:22;23.75;;;10.45;;
79687;SDS011;69155;49.464;2.108;2023-05-08T08:53:53;23.98;;;12.02;;
79687;SDS011;69155;49.464;2.108;2023-05-08T08:56:23;27.52;;;11.77;;
79687;SDS011;69155;49.464;2.108;2023-05-08T08:58:55;25.70;;;12.20;;
79687;SDS011;69155;49.464;2.108;2023-05-08T09:01:23;27.27;;;12.45;;
79687;SDS011;69155;49.464;2.108;2023-05-08T09:03:48;25.83;;;12.77;;
79687;SDS011;69155;49.464;2.108;2023-05-08T09:06:13;24.20;;;10.53;;
79687;SDS011;69155;49.464;2.108;2023-05-08T09:08:39;22.20;;;10.73;;
79687;SDS011;69155;49.464;2.108;2023-05-08T09:11:04;23.30;;;11.65;;
79687;SDS011;69155;49.464;2.108;2023-05-08T09:13:32;19.10;;;10.07;;
79687;SDS011;69155;49.464;2.108;2023-05-08T09:15:57;18.65;;;8.88;;
79687;SDS011;69155;49.464;2.108;2023-05-08T09:18:23;16.67;;;8.82;;
79687;SDS011;69155;49.464;2.108;2023-05-08T09:20:49;18.47;;;8.17;;
79687;SDS011;69155;49.464;2.108;2023-05-08T09:23:14;20.30;;;8.60;;
79687;SDS011;69155;49.464;2.108;2023-05-08T09:25:41;17.85;;;9.77;;
79687;SDS011;69155;49.464;2.108;2023-05-08T09:28:22;23.83;;;9.15;;
79687;SDS011;69155;49.464;2.108;2023-05-08T09:30:55;18.75;;;9.15;;
79687;SDS011;69155;49.464;2.108;2023-05-08T09:33:26;20.00;;;9.63;;
79687;SDS011;69155;49.464;2.108;2023-05-08T09:35:53;15.57;;;8.25;;
79687;SDS011;69155;49.464;2.108;2023-05-08T09:41:12;17.52;;;8.07;;
79687;SDS011;69155;49.464;2.108;2023-05-08T09:43:39;15.90;;;8.40;;
79687;SDS011;69155;49.464;2.108;2023-05-08T09:46:23;15.45;;;7.43;;
79687;SDS011;69155;49.464;2.108;2023-05-08T09:48:49;18.13;;;8.07;;
79687;SDS011;69155;49.464;2.108;2023-05-08T09:51:15;16.85;;;8.07;;
79687;SDS011;69155;49.464;2.108;2023-05-08T09:53:40;16.10;;;7.65;;
79687;SDS011;69155;49.464;2.108;2023-05-08T09:56:06;18.83;;;8.07;;
79687;SDS011;69155;49.464;2.108;2023-05-08T09:58:38;16.10;;;7.30;;
79687;SDS011;69155;49.464;2.108;2023-05-08T10:01:04;16.35;;;7.70;;
79687;SDS011;69155;49.464;2.108;2023-05-08T10:03:45;15.75;;;8.45;;
79687;SDS011;69155;49.464;2.108;2023-05-08T10:06:11;15.18;;;8.32;;
79687;SDS011;69155;49.464;2.108;2023-05-08T10:08:37;19.17;;;8.00;;
79687;SDS011;69155;49.464;2.108;2023-05-08T10:11:15;18.80;;;9.07;;
79687;SDS011;69155;49.464;2.108;2023-05-08T10:13:42;15.07;;;7.70;;
79687;SDS011;69155;49.464;2.108;2023-05-08T10:16:08;16.38;;;8.05;;
79687;SDS011;69155;49.464;2.108;2023-05-08T10:18:35;13.02;;;8.57;;
79687;SDS011;69155;49.464;2.108;2023-05-08T10:21:01;13.80;;;7.45;;
79687;SDS011;69155;49.464;2.108;2023-05-08T10:23:30;20.25;;;8.77;;
79687;SDS011;69155;49.464;2.108;2023-05-08T10:25:58;20.67;;;8.77;;
79687;SDS011;69155;49.464;2.108;2023-05-08T10:28:43;17.33;;;8.48;;
79687;SDS011;69155;49.464;2.108;2023-05-08T10:31:11;16.00;;;7.25;;
79687;SDS011;69155;49.464;2.108;2023-05-08T10:33:38;14.00;;;7.50;;
79687;SDS011;69155;49.464;2.108;2023-05-08T10:36:04;16.20;;;7.80;;
79687;SDS011;69155;49.464;2.108;2023-05-08T10:38:30;14.43;;;8.55;;
79687;SDS011;69155;49.464;2.108;2023-05-08T10:40:58;14.30;;;7.22;;
79687;SDS011;69155;49.464;2.108;2023-05-08T10:43:25;19.08;;;9.18;;
79687;SDS011;69155;49.464;2.108;2023-05-08T10:45:58;16.20;;;8.50;;
79687;SDS011;69155;49.464;2.108;2023-05-08T10:48:27;17.90;;;8.90;;
79687;SDS011;69155;49.464;2.108;2023-05-08T10:51:04;14.10;;;8.80;;
79687;SDS011;69155;49.464;2.108;2023-05-08T10:55:57;22.43;;;9.73;;
79687;SDS011;69155;49.464;2.108;2023-05-08T11:03:13;21.13;;;9.50;;
79687;SDS011;69155;49.464;2.108;2023-05-08T11:05:47;15.00;;;8.82;;
79687;SDS011;69155;49.464;2.108;2023-05-08T11:08:19;18.17;;;8.13;;
79687;SDS011;69155;49.464;2.108;2023-05-08T11:10:50;19.13;;;8.40;;
79687;SDS011;69155;49.464;2.108;2023-05-08T11:13:19;18.80;;;9.18;;
79687;SDS011;69155;49.464;2.108;2023-05-08T11:15:57;16.42;;;7.57;;
79687;SDS011;69155;49.464;2.108;2023-05-08T11:18:28;17.50;;;8.60;;
79687;SDS011;69155;49.464;2.108;2023-05-08T11:20:57;14.38;;;7.95;;
79687;SDS011;69155;49.464;2.108;2023-05-08T11:23:29;16.60;;;6.95;;
79687;SDS011;69155;49.464;2.108;2023-05-08T11:31:18;37.63;;;8.20;;
79687;SDS011;69155;49.464;2.108;2023-05-08T11:33:46;12.52;;;7.38;;
79687;SDS011;69155;49.464;2.108;2023-05-08T11:36:18;17.65;;;8.60;;
79687;SDS011;69155;49.464;2.108;2023-05-08T11:41:37;13.23;;;6.80;;
79687;SDS011;69155;49.464;2.108;2023-05-08T11:49:10;12.23;;;5.60;;
79687;SDS011;69155;49.464;2.108;2023-05-08T11:51:39;11.35;;;5.50;;
79687;SDS011;69155;49.464;2.108;2023-05-08T11:54:08;12.55;;;6.00;;
79687;SDS011;69155;49.464;2.108;2023-05-08T11:56:34;16.23;;;5.60;;
79687;SDS011;69155;49.464;2.108;2023-05-08T11:59:08;12.75;;;5.55;;
79687;SDS011;69155;49.464;2.108;2023-05-08T12:01:36;9.43;;;4.10;;
79687;SDS011;69155;49.464;2.108;2023-05-08T12:07:08;9.90;;;4.68;;
79687;SDS011;69155;49.464;2.108;2023-05-08T12:09:39;8.38;;;4.45;;
79687;SDS011;69155;49.464;2.108;2023-05-08T12:12:07;8.77;;;4.40;;
79687;SDS011;69155;49.464;2.108;2023-05-08T12:14:49;11.68;;;4.68;;
79687;SDS011;69155;49.464;2.108;2023-05-08T12:17:18;8.75;;;4.20;;
79687;SDS011;69155;49.464;2.108;2023-05-08T12:19:47;8.52;;;3.72;;
79687;SDS011;69155;49.464;2.108;2023-05-08T12:22:18;9.63;;;4.40;;
79687;SDS011;69155;49.464;2.108;2023-05-08T12:24:48;9.93;;;4.53;;
79687;SDS011;69155;49.464;2.108;2023-05-08T12:27:19;9.20;;;3.67;;
79687;SDS011;69155;49.464;2.108;2023-05-08T12:29:47;13.43;;;4.13;;
79687;SDS011;69155;49.464;2.108;2023-05-08T12:32:15;9.30;;;3.90;;
79687;SDS011;69155;49.464;2.108;2023-05-08T12:34:49;7.53;;;3.40;;
79687;SDS011;69155;49.464;2.108;2023-05-08T12:37:29;7.68;;;3.30;;
79687;SDS011;69155;49.464;2.108;2023-05-08T12:39:57;8.55;;;3.63;;
79687;SDS011;69155;49.464;2.108;2023-05-08T12:42:40;6.97;;;3.25;;
79687;SDS011;69155;49.464;2.108;2023-05-08T12:45:08;6.30;;;3.25;;
79687;SDS011;69155;49.464;2.108;2023-05-08T12:50:26;6.57;;;3.30;;
79687;SDS011;69155;49.464;2.108;2023-05-08T12:53:00;8.23;;;3.42;;
79687;SDS011;69155;49.464;2.108;2023-05-08T12:55:28;14.35;;;4.32;;
79687;SDS011;69155;49.464;2.108;2023-05-08T12:57:58;10.57;;;3.30;;
79687;SDS011;69155;49.464;2.108;2023-05-08T13:00:39;9.63;;;3.72;;
79687;SDS011;69155;49.464;2.108;2023-05-08T13:03:08;6.07;;;3.17;;
79687;SDS011;69155;49.464;2.108;2023-05-08T13:05:34;7.63;;;3.33;;
79687;SDS011;69155;49.464;2.108;2023-05-08T13:08:10;8.30;;;3.22;;
79687;SDS011;69155;49.464;2.108;2023-05-08T13:10:51;6.50;;;3.15;;
79687;SDS011;69155;49.464;2.108;2023-05-08T13:13:35;9.70;;;3.33;;
79687;SDS011;69155;49.464;2.108;2023-05-08T13:16:05;6.88;;;3.47;;
79687;SDS011;69155;49.464;2.108;2023-05-08T13:18:30;10.55;;;3.45;;
79687;SDS011;69155;49.464;2.108;2023-05-08T13:20:58;10.43;;;3.13;;
79687;SDS011;69155;49.464;2.108;2023-05-08T13:23:26;5.00;;;2.55;;
79687;SDS011;69155;49.464;2.108;2023-05-08T13:25:51;5.35;;;3.22;;
79687;SDS011;69155;49.464;2.108;2023-05-08T13:28:16;6.70;;;2.65;;
79687;SDS011;69155;49.464;2.108;2023-05-08T13:30:42;5.37;;;3.07;;
79687;SDS011;69155;49.464;2.108;2023-05-08T13:33:07;6.60;;;2.90;;
79687;SDS011;69155;49.464;2.108;2023-05-08T13:35:32;7.33;;;2.73;;
79687;SDS011;69155;49.464;2.108;2023-05-08T13:37:58;6.20;;;2.67;;
79687;SDS011;69155;49.464;2.108;2023-05-08T13:40:23;3.47;;;2.60;;
79687;SDS011;69155;49.464;2.108;2023-05-08T13:42:49;5.53;;;2.65;;
79687;SDS011;69155;49.464;2.108;2023-05-08T13:45:14;12.20;;;3.30;;
79687;SDS011;69155;49.464;2.108;2023-05-08T13:47:57;6.10;;;2.42;;
79687;SDS011;69155;49.464;2.108;2023-05-08T13:50:22;5.05;;;2.90;;
79687;SDS011;69155;49.464;2.108;2023-05-08T13:52:48;4.30;;;2.80;;
79687;SDS011;69155;49.464;2.108;2023-05-08T13:55:13;5.75;;;2.67;;
79687;SDS011;69155;49.464;2.108;2023-05-08T13:57:39;6.90;;;3.00;;
79687;SDS011;69155;49.464;2.108;2023-05-08T14:00:04;8.10;;;2.80;;
79687;SDS011;69155;49.464;2.108;2023-05-08T14:02:30;8.10;;;2.78;;
79687;SDS011;69155;49.464;2.108;2023-05-08T14:04:55;5.03;;;2.73;;
79687;SDS011;69155;49.464;2.108;2023-05-08T14:07:21;6.50;;;3.00;;
79687;SDS011;69155;49.464;2.108;2023-05-08T14:09:46;13.13;;;3.00;;
79687;SDS011;69155;49.464;2.108;2023-05-08T14:12:11;4.33;;;2.57;;
79687;SDS011;69155;49.464;2.108;2023-05-08T14:14:39;5.90;;;3.30;;
79687;SDS011;69155;49.464;2.108;2023-05-08T14:17:04;19.88;;;3.17;;
79687;SDS011;69155;49.464;2.108;2023-05-08T14:19:30;197.50;;;15.55;;
79687;SDS011;69155;49.464;2.108;2023-05-08T14:21:55;7.20;;;2.60;;
79687;SDS011;69155;49.464;2.108;2023-05-08T14:24:20;8.00;;;2.70;;
79687;SDS011;69155;49.464;2.108;2023-05-08T14:26:45;5.93;;;2.30;;
79687;SDS011;69155;49.464;2.108;2023-05-08T14:29:10;6.17;;;3.00;;
79687;SDS011;69155;49.464;2.108;2023-05-08T14:31:36;6.33;;;3.10;;
79687;SDS011;69155;49.464;2.108;2023-05-08T14:34:01;4.60;;;2.30;;
79687;SDS011;69155;49.464;2.108;2023-05-08T14:36:26;4.97;;;2.87;;
79687;SDS011;69155;49.464;2.108;2023-05-08T14:38:54;5.40;;;2.73;;
79687;SDS011;69155;49.464;2.108;2023-05-08T14:41:19;7.78;;;2.67;;
79687;SDS011;69155;49.464;2.108;2023-05-08T14:43:47;5.37;;;2.80;;
79687;SDS011;69155;49.464;2.108;2023-05-08T14:46:16;6.00;;;2.85;;
79687;SDS011;69155;49.464;2.108;2023-05-08T14:48:42;6.15;;;2.42;;
79687;SDS011;69155;49.464;2.108;2023-05-08T14:51:07;5.80;;;2.33;;
79687;SDS011;69155;49.464;2.108;2023-05-08T14:53:32;3.60;;;2.60;;
79687;SDS011;69155;49.464;2.108;2023-05-08T14:56:00;4.25;;;2.53;;
79687;SDS011;69155;49.464;2.108;2023-05-08T14:58:28;5.82;;;2.60;;
79687;SDS011;69155;49.464;2.108;2023-05-08T15:00:55;4.30;;;2.50;;
79687;SDS011;69155;49.464;2.108;2023-05-08T15:03:23;7.47;;;2.50;;
79687;SDS011;69155;49.464;2.108;2023-05-08T15:05:52;5.03;;;2.92;;
79687;SDS011;69155;49.464;2.108;2023-05-08T15:08:25;4.43;;;2.40;;
79687;SDS011;69155;49.464;2.108;2023-05-08T15:11:00;3.90;;;2.20;;
79687;SDS011;69155;49.464;2.108;2023-05-08T15:13:50;4.53;;;2.20;;
79687;SDS011;69155;49.464;2.108;2023-05-08T15:16:19;4.22;;;2.42;;
79687;SDS011;69155;49.464;2.108;2023-05-08T15:18:50;6.50;;;2.70;;
79687;SDS011;69155;49.464;2.108;2023-05-08T15:21:17;5.25;;;2.45;;
79687;SDS011;69155;49.464;2.108;2023-05-08T15:23:48;3.70;;;2.25;;
79687;SDS011;69155;49.464;2.108;2023-05-08T15:26:19;6.20;;;2.92;;
79687;SDS011;69155;49.464;2.108;2023-05-08T15:28:47;6.53;;;2.30;;
79687;SDS011;69155;49.464;2.108;2023-05-08T15:33:49;4.75;;;2.50;;
79687;SDS011;69155;49.464;2.108;2023-05-08T15:36:17;32.13;;;4.15;;
79687;SDS011;69155;49.464;2.108;2023-05-08T15:38:49;7.15;;;2.25;;
79687;SDS011;69155;49.464;2.108;2023-05-08T15:41:18;3.75;;;2.30;;
79687;SDS011;69155;49.464;2.108;2023-05-08T15:43:59;4.80;;;2.42;;
79687;SDS011;69155;49.464;2.108;2023-05-08T15:46:27;2.97;;;2.40;;